createdAt,value
2022-09-15T05:07:07.853Z,75.32
2022-09-15T05:09:35.710Z,75.05
2022-09-15T05:12:03.727Z,74.74
2022-09-15T05:14:31.815Z,74.93
2022-09-15T05:16:59.680Z,74.77
2022-09-15T05:19:27.646Z,75.31
2022-09-15T05:21:55.660Z,74.77
2022-09-15T05:24:24.920Z,75.09
2022-09-15T05:26:52.943Z,74.71
2022-09-15T05:29:20.847Z,74.83
2022-09-15T05:41:19.962Z,74.74
2022-09-15T05:43:49.932Z,74.61
2022-09-15T05:46:20.577Z,74.81
2022-09-15T05:48:48.780Z,74.42
2022-09-15T05:51:17.336Z,74.24
2022-09-15T05:53:46.220Z,73.84
2022-09-15T05:56:16.466Z,73.61
2022-09-15T05:58:48.548Z,74.00
2022-09-15T06:01:19.456Z,73.35
2022-09-15T06:52:52.201Z,71.06
2022-09-15T07:20:34.392Z,69.68
2022-09-15T07:23:02.870Z,69.27
2022-09-15T07:25:31.052Z,69.43
2022-09-15T07:37:37.059Z,69.44
2022-09-15T07:40:07.575Z,69.64
2022-09-15T07:42:36.835Z,69.54
2022-09-15T07:45:10.103Z,69.37
2022-09-15T07:54:01.028Z,68.83
2022-09-15T07:56:31.978Z,67.68
2022-09-15T07:59:23.209Z,67.34
2022-09-15T08:01:56.684Z,67.20
2022-09-15T08:04:29.237Z,66.45
2022-09-15T08:07:02.148Z,65.91
2022-09-15T08:09:54.176Z,63.90
2022-09-15T08:12:24.893Z,62.39
2022-09-15T08:49:59.138Z,58.96
2022-09-15T10:01:21.092Z,47.42
2022-09-15T10:03:49.670Z,45.14
2022-09-15T10:12:34.201Z,45.47
2022-09-15T10:15:06.167Z,44.64
2022-09-15T10:17:49.895Z,44.32
2022-09-15T10:20:28.863Z,45.03
2022-09-15T10:23:07.966Z,45.43
2022-09-15T10:25:58.080Z,47.19
2022-09-15T10:28:30.190Z,48.65
2022-09-15T10:31:07.382Z,49.69
2022-09-15T10:33:39.251Z,49.48
2022-09-15T10:36:13.157Z,48.38
2022-09-15T10:38:44.773Z,48.35
2022-09-15T10:41:26.160Z,48.96
2022-09-15T10:44:22.963Z,47.29
2022-09-15T10:46:59.988Z,47.37
2022-09-15T10:49:39.583Z,47.35
2022-09-15T10:52:19.711Z,46.56
2022-09-15T10:55:02.158Z,47.11
2022-09-15T10:57:47.985Z,45.89
2022-09-15T11:00:22.415Z,44.69
2022-09-15T11:03:27.024Z,44.60
2022-09-15T11:15:22.421Z,41.74
2022-09-15T11:18:05.612Z,42.64
2022-09-15T11:20:53.857Z,43.36
2022-09-15T11:23:29.229Z,43.19
2022-09-15T11:26:05.810Z,42.56
2022-09-15T11:28:39.973Z,42.94
2022-09-15T11:31:18.564Z,43.30
2022-09-15T11:49:43.887Z,46.64
2022-09-15T11:52:56.705Z,48.12
2022-09-15T12:50:57.237Z,43.19
2022-09-15T12:53:32.264Z,43.11
2022-09-15T12:56:03.926Z,44.99
2022-09-15T12:58:37.812Z,43.87
2022-09-15T13:01:38.190Z,44.31
2022-09-15T13:04:25.000Z,43.13
2022-09-15T13:07:34.830Z,43.33
2022-09-15T13:25:58.814Z,43.24
2022-09-15T13:28:28.389Z,43.33
2022-09-15T13:40:49.329Z,45.80
2022-09-15T13:43:43.590Z,45.41
2022-09-15T13:46:28.935Z,44.04
2022-09-15T13:49:16.791Z,44.45
2022-09-15T13:51:53.497Z,44.67
2022-09-15T13:54:24.950Z,44.92
2022-09-15T13:56:53.586Z,46.33
2022-09-15T13:59:26.901Z,46.21
2022-09-15T14:01:56.732Z,45.38
2022-09-15T14:04:27.850Z,46.47
2022-09-15T14:07:01.010Z,46.37
2022-09-15T14:09:34.389Z,46.75
2022-09-15T14:12:05.264Z,46.64
2022-09-15T14:14:40.170Z,46.58
2022-09-15T14:17:20.644Z,45.29
2022-09-15T14:19:50.277Z,44.61
2022-09-15T14:22:27.292Z,46.08
2022-09-15T14:24:56.506Z,45.65
2022-09-15T14:27:31.903Z,45.45
2022-09-15T14:30:08.293Z,46.22
2022-09-15T14:32:40.200Z,47.44
2022-09-15T14:35:19.823Z,47.54
2022-09-15T14:38:04.799Z,47.42
2022-09-15T14:46:40.378Z,47.72
2022-09-15T14:49:11.791Z,47.54
2022-09-15T14:51:40.780Z,47.86
2022-09-15T14:54:17.179Z,48.15
2022-09-15T14:56:46.943Z,47.88
2022-09-15T14:59:20.328Z,47.79
2022-09-15T15:01:57.909Z,48.15
2022-09-15T15:04:31.928Z,48.62
2022-09-15T15:07:05.049Z,49.34
2022-09-15T15:09:38.853Z,48.91
2022-09-15T15:12:15.362Z,49.76
2022-09-15T15:14:43.574Z,50.53
2022-09-15T15:17:27.676Z,50.62
2022-09-15T15:20:13.332Z,51.63
2022-09-15T15:22:43.641Z,51.89
2022-09-15T15:25:28.184Z,51.53
2022-09-15T15:27:57.440Z,50.77
2022-09-15T15:30:47.100Z,51.53
2022-09-15T15:33:27.518Z,51.91
2022-09-15T15:36:07.832Z,51.79
2022-09-15T15:38:37.974Z,52.81
2022-09-15T15:41:08.029Z,53.83
2022-09-15T15:43:36.119Z,52.69
2022-09-15T15:46:06.656Z,53.40
2022-09-15T15:48:38.545Z,53.87
2022-09-15T15:51:07.677Z,54.20
2022-09-15T15:53:35.750Z,54.39
2022-09-15T15:56:04.021Z,54.32
2022-09-15T15:58:33.294Z,55.00
2022-09-15T16:01:01.184Z,55.51
2022-09-15T16:03:29.023Z,55.48
2022-09-15T16:06:00.430Z,55.91
2022-09-15T16:08:31.099Z,55.98
2022-09-15T16:11:01.999Z,56.85
2022-09-15T16:13:29.898Z,57.84
2022-09-15T16:16:00.538Z,57.24
2022-09-15T16:18:28.888Z,58.00
2022-09-15T16:20:56.815Z,57.64
2022-09-15T16:23:25.978Z,56.93
2022-09-15T16:25:56.438Z,57.87
2022-09-15T16:28:24.409Z,58.01
2022-09-15T16:30:56.721Z,58.27
2022-09-15T16:33:25.779Z,58.38
2022-09-15T16:35:56.362Z,57.98
2022-09-15T16:38:28.095Z,58.01
2022-09-15T16:40:56.635Z,58.40
2022-09-15T16:43:24.457Z,58.45
2022-09-15T16:45:53.168Z,59.02
2022-09-15T16:48:21.406Z,59.32
2022-09-15T16:51:09.067Z,57.34
2022-09-15T16:53:40.839Z,58.14
2022-09-15T16:56:12.604Z,58.36
2022-09-15T16:58:40.612Z,58.62
2022-09-15T17:01:13.369Z,58.77
2022-09-15T17:03:43.236Z,58.68
2022-09-15T17:06:14.407Z,57.39
2022-09-15T17:08:43.698Z,57.29
2022-09-15T17:11:16.393Z,58.54
2022-09-15T17:13:45.282Z,58.30
2022-09-15T17:16:14.842Z,57.55
2022-09-15T17:18:42.771Z,56.46
2022-09-15T17:21:12.126Z,56.29
2022-09-15T17:23:42.024Z,57.07
2022-09-15T17:26:13.872Z,57.62
2022-09-15T17:28:42.148Z,56.97
2022-09-15T17:31:15.347Z,58.38
2022-09-15T17:33:43.594Z,57.31
2022-09-15T17:36:11.418Z,58.18
2022-09-15T17:38:40.910Z,57.80
2022-09-15T17:41:08.735Z,58.73
2022-09-15T17:43:37.923Z,57.76
2022-09-15T17:46:05.896Z,58.09
2022-09-15T17:48:33.863Z,57.88
2022-09-15T17:51:01.856Z,58.99
2022-09-15T17:53:31.014Z,59.07
2022-09-15T17:55:58.804Z,59.88
2022-09-15T17:58:29.890Z,58.89
2022-09-15T18:01:00.243Z,58.59
2022-09-15T18:03:33.165Z,58.68
2022-09-15T18:06:04.277Z,59.85
2022-09-15T18:08:32.866Z,60.00
2022-09-15T18:11:01.391Z,59.95
2022-09-15T18:13:31.230Z,59.46
2022-09-15T18:16:07.248Z,59.87
2022-09-15T18:18:35.184Z,59.65
2022-09-15T18:21:09.540Z,59.91
2022-09-15T18:23:39.074Z,60.66
2022-09-15T18:26:07.063Z,60.39
2022-09-15T18:28:34.842Z,60.17
2022-09-15T18:31:04.064Z,60.32
2022-09-15T18:33:31.886Z,59.94
2022-09-15T18:36:00.086Z,60.39
2022-09-15T18:38:28.079Z,60.60
2022-09-15T18:40:57.156Z,60.93
2022-09-15T18:43:27.591Z,60.22
2022-09-15T18:46:01.844Z,60.44
2022-09-15T18:48:37.156Z,60.45
2022-09-15T18:51:08.648Z,60.43
2022-09-15T18:53:36.415Z,60.63
2022-09-15T18:56:10.534Z,59.49
2022-09-15T18:58:38.449Z,60.15
2022-09-15T19:01:07.114Z,60.22
2022-09-15T19:03:44.050Z,59.42
2022-09-15T19:06:12.152Z,59.79
2022-09-15T19:08:40.285Z,60.56
2022-09-15T19:11:09.248Z,60.15
2022-09-15T19:13:37.011Z,59.56
2022-09-15T19:16:05.539Z,60.47
2022-09-15T19:18:33.438Z,60.18
2022-09-15T19:21:07.158Z,59.98
2022-09-15T19:23:35.869Z,60.08
2022-09-15T19:26:04.862Z,59.84
2022-09-15T19:28:33.343Z,60.01
2022-09-15T19:31:01.599Z,59.21
2022-09-15T19:33:29.419Z,59.15
2022-09-15T19:36:17.181Z,59.88
2022-09-15T19:38:51.832Z,59.97
2022-09-15T19:41:19.618Z,59.47
2022-09-15T19:43:47.412Z,60.17
2022-09-15T19:46:17.117Z,59.91
2022-09-15T19:48:47.934Z,59.92
2022-09-15T19:51:19.092Z,60.36
2022-09-15T19:53:47.477Z,60.06
2022-09-15T19:56:18.336Z,60.44
2022-09-15T19:58:46.591Z,60.73
2022-09-15T20:01:14.754Z,60.59
2022-09-15T20:03:42.836Z,60.20
2022-09-15T20:06:10.641Z,60.24
2022-09-15T20:08:41.493Z,60.71
2022-09-15T20:11:10.500Z,59.87
2022-09-15T20:13:41.446Z,60.95
2022-09-15T20:16:09.581Z,60.97
2022-09-15T20:18:41.159Z,61.08
2022-09-15T20:21:12.336Z,61.03
2022-09-15T20:23:50.233Z,61.39
2022-09-15T20:26:18.738Z,60.65
2022-09-15T20:28:48.505Z,60.35
2022-09-15T20:44:04.895Z,60.11
2022-09-15T20:46:39.408Z,60.02
2022-09-15T20:52:22.107Z,59.28
2022-09-15T21:14:20.906Z,58.54
2022-09-15T21:17:06.576Z,58.70
2022-09-15T21:19:45.643Z,58.70
2022-09-15T21:22:29.398Z,59.48
2022-09-15T21:40:48.633Z,59.88
2022-09-15T22:02:11.594Z,60.12
2022-09-15T22:04:39.782Z,60.20
2022-09-15T22:07:12.728Z,60.80
2022-09-15T22:09:40.993Z,61.00
2022-09-15T22:12:08.914Z,60.91
2022-09-15T22:14:36.941Z,61.07
2022-09-15T22:17:06.463Z,60.83
2022-09-15T22:19:35.761Z,60.76
2022-09-15T22:22:03.909Z,61.29
2022-09-15T22:24:31.924Z,61.02
2022-09-15T22:26:59.812Z,60.32
2022-09-15T22:29:28.313Z,60.46
2022-09-15T22:31:56.433Z,60.38
2022-09-15T22:34:29.085Z,61.04
2022-09-15T22:36:58.304Z,59.90
2022-09-15T22:39:43.961Z,60.68
2022-09-15T22:42:14.093Z,60.39
2022-09-15T22:44:41.866Z,60.20
2022-09-15T22:47:10.314Z,60.52
2022-09-15T22:49:38.597Z,60.58
2022-09-15T22:52:07.815Z,61.07
2022-09-15T22:54:35.718Z,60.68
2022-09-15T22:57:03.557Z,60.87
2022-09-15T22:59:33.530Z,59.87
2022-09-15T23:02:01.451Z,60.43
2022-09-15T23:04:29.487Z,60.80
2022-09-15T23:06:57.316Z,60.70
2022-09-15T23:09:26.596Z,60.62
2022-09-15T23:11:54.777Z,60.77
2022-09-15T23:14:23.826Z,61.15
2022-09-15T23:16:51.746Z,61.09
2022-09-15T23:19:19.856Z,61.24
2022-09-15T23:21:47.666Z,61.70
2022-09-15T23:24:17.038Z,61.92
2022-09-15T23:26:46.197Z,61.97
2022-09-15T23:29:14.218Z,61.76
2022-09-15T23:31:42.057Z,62.23
2022-09-15T23:34:10.028Z,62.29
2022-09-15T23:36:38.308Z,62.14
2022-09-15T23:39:06.244Z,62.55
2022-09-15T23:41:34.528Z,62.55
2022-09-15T23:44:07.744Z,63.28
2022-09-15T23:46:36.169Z,63.60
2022-09-15T23:49:04.191Z,63.35
2022-09-15T23:51:32.774Z,63.78
2022-09-15T23:54:01.912Z,63.33
2022-09-15T23:56:30.875Z,64.49
2022-09-15T23:58:58.735Z,64.04
